Time;durP1;ratioP1;P1;durP2;ratioP2;P2;SDS_P1;SDS_P2;PMS_P1;PMS_P2;Temp;Humidity;BMP_temperature;BMP_pressure;BME280_temperature;BME280_humidity;BME280_pressure;Samples;Min_cycle;Max_cycle;Signal;HPM_P1;HPM_P2
2024/04/18 00:00:18;;;;;;;2.10;0.90;;;;;18.40;100213.00;;;;2218363;26;20258;-57
2024/04/18 00:01:19;;;;;;;1.97;0.83;;;;;17.80;100219.00;;;;2209344;26;20277;-58
2024/04/18 00:02:19;;;;;;;2.00;1.00;;;;;18.50;100208.00;;;;2218995;26;20259;-57
2024/04/18 00:03:19;;;;;;;2.00;0.90;;;;;18.50;100214.00;;;;2226054;26;20813;-58
2024/04/18 00:04:20;;;;;;;1.80;1.10;;;;;18.50;100215.00;;;;2228577;26;20385;-58
2024/04/18 00:05:20;;;;;;;2.47;1.00;;;;;18.50;100101.00;;;;2225262;26;20255;-58
2024/04/18 00:06:20;;;;;;;2.50;1.10;;;;;18.50;100210.00;;;;2208492;26;21079;-57
2024/04/18 00:07:21;;;;;;;2.23;0.90;;;;;18.50;100219.00;;;;2223135;26;20583;-58
2024/04/18 00:08:21;;;;;;;2.10;0.90;;;;;18.50;100220.00;;;;2217640;26;20254;-57
2024/04/18 00:09:21;;;;;;;1.60;0.70;;;;;18.50;100220.00;;;;2227096;26;20300;-57
2024/04/18 00:10:22;;;;;;;2.53;1.20;;;;;18.40;100218.00;;;;2224153;26;20259;-58
2024/04/18 00:11:22;;;;;;;2.60;0.97;;;;;18.50;100215.00;;;;2212819;26;20328;-57
2024/04/18 00:12:22;;;;;;;1.93;0.93;;;;;18.50;100223.00;;;;2216838;26;20293;-58
2024/04/18 00:13:23;;;;;;;2.03;1.10;;;;;18.50;100221.00;;;;2227535;26;20253;-57
2024/04/18 00:14:23;;;;;;;2.10;1.20;;;;;18.50;100229.00;;;;2230629;26;20253;-57
2024/04/18 00:15:23;;;;;;;1.80;0.90;;;;;18.50;100229.00;;;;2225476;26;20261;-57
2024/04/18 00:16:24;;;;;;;1.90;0.93;;;;;18.50;100226.00;;;;2210474;26;20255;-58
2024/04/18 00:17:25;;;;;;;3.40;1.00;;;;;18.40;100221.00;;;;2222462;26;20253;-58
2024/04/18 00:18:25;;;;;;;2.00;0.98;;;;;18.40;100240.00;;;;2218034;26;20337;-57
2024/04/18 00:19:26;;;;;;;2.20;1.00;;;;;18.50;100219.00;;;;2217193;26;20807;-58
2024/04/18 00:20:26;;;;;;;2.23;1.00;;;;;18.50;100223.00;;;;2221822;26;20726;-57
2024/04/18 00:21:27;;;;;;;2.53;0.90;;;;;18.50;100222.00;;;;2207599;26;20251;-58
2024/04/18 00:22:27;;;;;;;2.20;1.13;;;;;18.50;100225.00;;;;2219154;26;20537;-58
2024/04/18 00:23:27;;;;;;;1.80;1.10;;;;;18.40;100232.00;;;;2217304;26;20258;-58
2024/04/18 00:24:28;;;;;;;2.33;0.90;;;;;18.50;100231.00;;;;2217409;26;20293;-58
2024/04/18 00:25:30;;;;;;;1.97;1.00;;;;;18.50;100224.00;;;;2217501;26;20258;-57
2024/04/18 00:26:31;;;;;;;2.15;1.15;;;;;18.50;100229.00;;;;2218637;26;20250;-58
2024/04/18 00:27:32;;;;;;;2.57;0.90;;;;;18.50;100246.00;;;;2226406;26;20773;-58
2024/04/18 00:28:32;;;;;;;1.80;0.90;;;;;18.50;100231.00;;;;2225459;26;21092;-58
2024/04/18 00:29:36;;;;;;;2.30;1.10;;;;;18.50;100228.00;;;;2223858;26;20365;-57
2024/04/18 00:30:36;;;;;;;2.65;1.00;;;;;18.50;100232.00;;;;2219858;26;20314;-57
2024/04/18 00:31:36;;;;;;;1.97;0.87;;;;;18.40;100233.00;;;;2207249;26;20300;-58
2024/04/18 00:32:37;;;;;;;1.80;0.80;;;;;18.50;100238.00;;;;2218392;26;20254;-57
2024/04/18 00:33:37;;;;;;;1.77;1.00;;;;;18.40;100240.00;;;;2219643;26;20301;-57
2024/04/18 00:34:37;;;;;;;2.47;1.10;;;;;18.40;100240.00;;;;2218383;26;20263;-57
2024/04/18 00:35:41;;;;;;;2.30;1.10;;;;;18.40;100233.00;;;;2230363;26;20362;-57
2024/04/18 00:36:41;;;;;;;1.60;0.70;;;;;18.40;100238.00;;;;2210073;26;20643;-58
2024/04/18 00:37:42;;;;;;;3.00;1.10;;;;;18.50;100240.00;;;;2218246;26;20254;-58
2024/04/18 00:38:42;;;;;;;1.90;0.90;;;;;18.40;100240.00;;;;2218415;26;20255;-58
2024/04/18 00:39:42;;;;;;;1.90;0.80;;;;;18.40;100237.00;;;;2223468;26;20250;-58
2024/04/18 00:40:43;;;;;;;4.33;1.10;;;;;18.40;100243.00;;;;2232990;26;20343;-58
2024/04/18 00:41:43;;;;;;;2.10;0.90;;;;;18.40;100241.00;;;;2208330;26;20953;-58
2024/04/18 00:42:44;;;;;;;2.03;0.93;;;;;18.40;100236.00;;;;2219737;26;20247;-57
2024/04/18 00:43:44;;;;;;;2.23;1.03;;;;;18.40;100250.00;;;;2218940;26;20877;-57
2024/04/18 00:44:44;;;;;;;2.53;1.13;;;;;18.40;100242.00;;;;2217439;26;20289;-58
2024/04/18 00:45:45;;;;;;;2.03;0.90;;;;;18.40;100241.00;;;;2218697;26;20267;-57
2024/04/18 00:46:45;;;;;;;2.00;1.00;;;;;18.40;100244.00;;;;2207393;26;20284;-58
2024/04/18 00:47:47;;;;;;;2.00;0.80;;;;;18.40;100277.00;;;;2220385;26;20267;-58
2024/04/18 00:48:47;;;;;;;2.42;0.93;;;;;18.40;100234.00;;;;2219190;26;20261;-57
2024/04/18 00:49:47;;;;;;;2.20;1.00;;;;;18.40;100241.00;;;;2206617;26;20264;-58
2024/04/18 00:50:51;;;;;;;2.80;1.00;;;;;18.40;100242.00;;;;2220561;26;20297;-58
2024/04/18 00:51:52;;;;;;;1.90;1.00;;;;;18.50;100238.00;;;;2225353;26;20262;-61
2024/04/18 00:52:52;;;;;;;2.00;0.80;;;;;18.40;100247.00;;;;2228038;26;20304;-59
2024/04/18 00:53:53;;;;;;;1.67;0.73;;;;;18.40;100238.00;;;;2212278;26;20347;-57
2024/04/18 00:54:53;;;;;;;2.00;1.10;;;;;18.40;100239.00;;;;2229256;26;20258;-59
2024/04/18 00:55:54;;;;;;;2.47;1.20;;;;;18.40;100239.00;;;;2205208;26;20657;-59
2024/04/18 00:56:54;;;;;;;2.60;1.10;;;;;18.50;100253.00;;;;2210080;26;20308;-57
2024/04/18 00:57:54;;;;;;;2.30;1.33;;;;;18.40;100252.00;;;;2226992;26;20273;-57
2024/04/18 00:58:55;;;;;;;2.00;0.93;;;;;18.50;100246.00;;;;2221799;26;20258;-58
2024/04/18 00:59:55;;;;;;;4.43;1.20;;;;;18.40;100155.00;;;;2220577;26;20285;-57
2024/04/18 01:00:55;;;;;;;2.10;1.00;;;;;18.40;100255.00;;;;2224661;26;21172;-57
2024/04/18 01:01:56;;;;;;;2.00;0.90;;;;;18.40;100256.00;;;;2192267;26;20755;-58
2024/04/18 01:02:56;;;;;;;2.13;1.10;;;;;18.40;100260.00;;;;2219963;26;20301;-58
2024/04/18 01:03:56;;;;;;;2.27;0.97;;;;;18.40;100254.00;;;;2215924;26;20255;-58
2024/04/18 01:04:57;;;;;;;1.90;0.83;;;;;18.40;100254.00;;;;2218496;26;20572;-57
2024/04/18 01:05:57;;;;;;;2.27;0.93;;;;;18.40;100260.00;;;;2220422;26;20361;-58
2024/04/18 01:06:58;;;;;;;2.27;1.00;;;;;18.40;100257.00;;;;2221716;26;20261;-57
2024/04/18 01:07:58;;;;;;;2.07;0.77;;;;;18.40;100260.00;;;;2218691;26;20306;-58
2024/04/18 01:09:01;;;;;;;2.20;1.00;;;;;18.40;100257.00;;;;2217748;26;20289;-57
2024/04/18 01:10:01;;;;;;;2.22;1.05;;;;;18.40;100256.00;;;;2225143;26;20315;-58
2024/04/18 01:11:01;;;;;;;1.80;0.80;;;;;18.40;100257.00;;;;2220979;26;20608;-58
2024/04/18 01:12:02;;;;;;;1.93;0.80;;;;;18.40;100257.00;;;;2218644;26;21152;-58
2024/04/18 01:13:02;;;;;;;1.97;0.90;;;;;18.40;100258.00;;;;2231274;26;20904;-58
2024/04/18 01:14:10;;;;;;;3.03;0.90;;;;;18.40;100259.00;;;;2221539;26;20930;-58
2024/04/18 01:15:10;;;;;;;1.80;0.70;;;;;18.40;100269.00;;;;2226722;26;20266;-58
2024/04/18 01:16:11;;;;;;;1.80;0.80;;;;;18.40;100257.00;;;;2219611;26;20353;-58
2024/04/18 01:17:11;;;;;;;2.00;1.10;;;;;18.40;100260.00;;;;2210177;26;20351;-58
2024/04/18 01:18:11;;;;;;;1.80;0.83;;;;;18.40;100263.00;;;;2219462;26;20326;-57
2024/04/18 01:19:16;;;;;;;3.67;1.17;;;;;18.40;100261.00;;;;2218503;26;20254;-58
2024/04/18 01:20:17;;;;;;;2.05;0.80;;;;;18.40;100256.00;;;;2226389;26;20372;-57
2024/04/18 01:21:17;;;;;;;2.77;0.80;;;;;18.40;100257.00;;;;2194713;26;20252;-57
2024/04/18 01:22:17;;;;;;;1.90;0.90;;;;;18.40;100247.00;;;;2221186;26;20391;-57
2024/04/18 01:23:18;;;;;;;2.63;1.10;;;;;18.40;100261.00;;;;2217136;26;20259;-57
2024/04/18 01:24:18;;;;;;;2.00;0.80;;;;;18.40;100261.00;;;;2218792;26;20239;-58
2024/04/18 01:25:18;;;;;;;2.10;1.00;;;;;18.40;100260.00;;;;2219191;26;20318;-58
2024/04/18 01:26:19;;;;;;;1.70;0.70;;;;;18.40;100269.00;;;;2209401;26;20315;-57
2024/04/18 01:27:19;;;;;;;1.93;0.70;;;;;18.40;100266.00;;;;2227063;26;20240;-58
2024/04/18 01:28:19;;;;;;;2.10;0.87;;;;;18.40;100261.00;;;;2219261;26;20243;-57
2024/04/18 01:29:20;;;;;;;1.70;0.83;;;;;18.00;100267.00;;;;2224621;26;20286;-57
2024/04/18 01:30:20;;;;;;;2.10;1.00;;;;;18.40;100274.00;;;;2219093;26;20251;-58
2024/04/18 01:31:20;;;;;;;2.20;1.20;;;;;18.40;100278.00;;;;2211942;26;20297;-58
2024/04/18 01:32:21;;;;;;;1.87;1.10;;;;;18.40;100269.00;;;;2225133;26;20239;-58
2024/04/18 01:33:21;;;;;;;2.07;0.90;;;;;18.40;100267.00;;;;2216308;26;20639;-57
2024/04/18 01:34:21;;;;;;;2.20;0.90;;;;;18.40;100270.00;;;;2222414;26;20298;-58
2024/04/18 01:35:22;;;;;;;1.90;0.90;;;;;18.40;100278.00;;;;2224232;26;20292;-57
2024/04/18 01:36:23;;;;;;;1.97;0.80;;;;;18.40;100271.00;;;;2210999;26;20250;-58
2024/04/18 01:37:23;;;;;;;1.93;0.90;;;;;18.40;100271.00;;;;2219027;26;20251;-58
2024/04/18 01:38:23;;;;;;;1.77;0.87;;;;;18.40;100280.00;;;;2218215;26;20466;-57
2024/04/18 01:39:24;;;;;;;1.90;0.80;;;;;18.40;100274.00;;;;2219390;26;20258;-57
2024/04/18 01:40:24;;;;;;;1.90;0.77;;;;;18.40;100276.00;;;;2218372;26;20341;-58
2024/04/18 01:41:24;;;;;;;2.20;0.70;;;;;18.40;100275.00;;;;2216085;26;20274;-57
2024/04/18 01:42:25;;;;;;;1.73;0.83;;;;;18.40;100280.00;;;;2218426;26;20266;-58
2024/04/18 01:43:25;;;;;;;2.53;1.10;;;;;18.40;100280.00;;;;2219140;26;20295;-57
2024/04/18 01:44:25;;;;;;;2.50;1.00;;;;;18.40;100280.00;;;;2217267;26;20251;-57
2024/04/18 01:45:26;;;;;;;2.20;0.90;;;;;18.40;100285.00;;;;2223810;26;20296;-57
2024/04/18 01:46:26;;;;;;;2.00;0.90;;;;;18.40;100288.00;;;;2214726;26;20254;-57
2024/04/18 01:47:26;;;;;;;2.10;0.90;;;;;18.40;100288.00;;;;2219460;26;20711;-58
2024/04/18 01:48:27;;;;;;;1.83;0.80;;;;;18.00;100289.00;;;;2216077;26;20247;-58
2024/04/18 01:49:27;;;;;;;1.90;0.90;;;;;18.40;100320.00;;;;2218267;26;20259;-57
2024/04/18 01:50:27;;;;;;;2.20;0.97;;;;;18.40;100284.00;;;;2224899;26;20726;-57
2024/04/18 01:51:27;;;;;;;1.87;0.80;;;;;18.40;100287.00;;;;2211252;26;20912;-61
2024/04/18 01:52:28;;;;;;;2.63;0.97;;;;;18.40;100291.00;;;;2218191;26;20352;-61
2024/04/18 01:53:28;;;;;;;2.53;1.10;;;;;18.40;100283.00;;;;2225628;26;20255;-59
2024/04/18 01:54:29;;;;;;;2.10;1.17;;;;;18.40;100285.00;;;;2225432;26;20259;-58
2024/04/18 01:55:29;;;;;;;1.70;0.83;;;;;18.40;100291.00;;;;2229715;26;20645;-58
2024/04/18 01:56:29;;;;;;;2.10;0.90;;;;;18.40;100292.00;;;;2211303;26;20614;-58
2024/04/18 01:57:30;;;;;;;2.20;0.90;;;;;18.40;100287.00;;;;2222658;26;20723;-57
2024/04/18 01:58:30;;;;;;;2.00;0.70;;;;;18.40;100291.00;;;;2226802;26;20722;-57
2024/04/18 01:59:31;;;;;;;1.90;0.93;;;;;18.40;100289.00;;;;2226353;26;20290;-58
2024/04/18 02:00:31;;;;;;;2.27;1.00;;;;;18.40;100290.00;;;;2231398;26;20250;-58
2024/04/18 02:01:32;;;;;;;4.03;1.20;;;;;18.40;100292.00;;;;2208405;26;20252;-58
2024/04/18 02:02:32;;;;;;;2.07;1.00;;;;;18.40;100288.00;;;;2223026;26;20247;-58
2024/04/18 02:03:32;;;;;;;1.73;0.70;;;;;18.40;100299.00;;;;2216448;26;20262;-58
2024/04/18 02:04:33;;;;;;;2.10;1.10;;;;;18.40;100293.00;;;;2224118;26;20250;-58
2024/04/18 02:05:33;;;;;;;1.90;0.90;;;;;18.40;100293.00;;;;2224144;26;20263;-58
2024/04/18 02:06:33;;;;;;;1.77;0.70;;;;;18.40;100292.00;;;;2213284;26;20288;-58
2024/04/18 02:07:34;;;;;;;1.80;0.77;;;;;18.30;100288.00;;;;2227233;26;20246;-57
2024/04/18 02:08:34;;;;;;;1.90;0.90;;;;;18.40;100300.00;;;;2233829;26;20254;-58
2024/04/18 02:09:34;;;;;;;3.60;0.80;;;;;18.40;100295.00;;;;2228886;26;20912;-59
2024/04/18 02:10:35;;;;;;;1.83;0.83;;;;;18.40;100288.00;;;;2224400;26;20739;-59
2024/04/18 02:11:38;;;;;;;2.60;1.03;;;;;18.40;100291.00;;;;2211191;26;20258;-58
2024/04/18 02:12:39;;;;;;;1.90;0.80;;;;;18.40;100295.00;;;;2231895;26;20344;-58
2024/04/18 02:13:39;;;;;;;2.07;0.90;;;;;18.40;100299.00;;;;2222684;26;20259;-58
2024/04/18 02:14:40;;;;;;;2.00;1.00;;;;;18.40;100300.00;;;;2218848;26;20616;-58
2024/04/18 02:15:40;;;;;;;2.23;0.90;;;;;18.40;100288.00;;;;2220532;26;20605;-58
2024/04/18 02:16:40;;;;;;;2.67;0.80;;;;;18.40;100354.00;;;;2208656;26;20795;-58
2024/04/18 02:17:40;;;;;;;1.90;0.80;;;;;18.40;100292.00;;;;2229867;26;20636;-58
2024/04/18 02:18:41;;;;;;;2.20;1.10;;;;;18.40;100297.00;;;;2224208;26;20899;-58
2024/04/18 02:19:41;;;;;;;2.10;0.70;;;;;18.40;100299.00;;;;2218431;26;20716;-58
2024/04/18 02:20:41;;;;;;;2.20;0.80;;;;;18.40;100295.00;;;;2230229;26;20257;-58
2024/04/18 02:21:42;;;;;;;1.93;1.03;;;;;18.40;100289.00;;;;2210235;26;20439;-58
2024/04/18 02:22:42;;;;;;;2.13;1.00;;;;;18.40;100296.00;;;;2218405;26;20255;-57
2024/04/18 02:23:43;;;;;;;1.87;1.03;;;;;18.40;100311.00;;;;2217410;26;20258;-58
2024/04/18 02:25:06;;;;;;;2.97;0.90;;;;;18.40;100340.00;;;;2219121;26;20255;-57
2024/04/18 02:26:06;;;;;;;2.20;0.90;;;;;18.40;100297.00;;;;2222556;26;20535;-58
2024/04/18 02:27:07;;;;;;;1.70;0.60;;;;;18.30;100351.00;;;;2213051;26;21196;-57
2024/04/18 02:28:07;;;;;;;1.90;0.90;;;;;18.40;100299.00;;;;2218552;26;20780;-58
2024/04/18 02:29:07;;;;;;;1.90;0.80;;;;;18.40;100294.00;;;;2232717;26;20813;-58
2024/04/18 02:30:09;;;;;;;2.37;0.90;;;;;18.40;100289.00;;;;2227088;26;20305;-58
2024/04/18 02:31:09;;;;;;;2.22;0.93;;;;;18.30;100291.00;;;;2222843;26;20263;-58
2024/04/18 02:32:10;;;;;;;2.03;0.80;;;;;18.30;100296.00;;;;2210351;26;20256;-58
2024/04/18 02:33:13;;;;;;;2.07;1.10;;;;;18.30;100294.00;;;;2217117;26;20269;-58
2024/04/18 02:34:13;;;;;;;2.15;0.90;;;;;18.40;100297.00;;;;2218441;26;20259;-58
2024/04/18 02:35:14;;;;;;;2.27;1.20;;;;;18.40;100293.00;;;;2219588;26;20345;-57
2024/04/18 02:36:14;;;;;;;1.70;0.70;;;;;18.40;100302.00;;;;2208950;26;20266;-58
2024/04/18 02:37:14;;;;;;;3.30;1.10;;;;;18.40;100293.00;;;;2222658;26;20302;-57
2024/04/18 02:38:15;;;;;;;1.90;0.90;;;;;18.40;100298.00;;;;2223739;26;20464;-58
2024/04/18 02:39:15;;;;;;;2.20;1.00;;;;;18.30;100294.00;;;;2222838;26;20258;-58
2024/04/18 02:40:16;;;;;;;2.63;0.90;;;;;18.30;100307.00;;;;2221295;26;20305;-58
2024/04/18 02:41:16;;;;;;;2.03;0.80;;;;;18.30;100300.00;;;;2222550;26;20292;-58
2024/04/18 02:42:17;;;;;;;2.07;0.90;;;;;18.30;100302.00;;;;2233258;26;20250;-58
2024/04/18 02:43:17;;;;;;;3.00;1.00;;;;;18.30;100313.00;;;;2222607;26;20250;-58
2024/04/18 02:44:18;;;;;;;2.43;1.00;;;;;18.40;100315.00;;;;2229709;26;20249;-58
2024/04/18 02:45:18;;;;;;;2.30;1.00;;;;;18.40;100314.00;;;;2227056;26;20257;-58
2024/04/18 02:46:19;;;;;;;1.70;0.77;;;;;18.30;100317.00;;;;2208474;26;20259;-58
2024/04/18 02:47:19;;;;;;;2.67;1.10;;;;;18.30;100321.00;;;;2219478;26;20855;-58
2024/04/18 02:48:19;;;;;;;2.07;0.87;;;;;18.40;100320.00;;;;2220569;26;20255;-58
2024/04/18 02:49:20;;;;;;;2.10;1.03;;;;;18.30;100313.00;;;;2222068;26;20695;-58
2024/04/18 02:50:20;;;;;;;2.43;0.77;;;;;18.30;100273.00;;;;2225400;26;20361;-58
2024/04/18 02:51:20;;;;;;;4.17;1.10;;;;;18.40;100321.00;;;;2212896;26;20608;-58
2024/04/18 02:52:23;;;;;;;2.37;1.00;;;;;18.40;100354.00;;;;2222198;26;21329;-58
2024/04/18 02:53:23;;;;;;;1.98;1.00;;;;;18.40;100319.00;;;;2217302;26;20257;-58
2024/04/18 02:54:23;;;;;;;2.10;0.90;;;;;18.40;100335.00;;;;2223882;26;20257;-58
2024/04/18 02:55:24;;;;;;;2.10;0.80;;;;;18.40;100331.00;;;;2224298;26;20253;-58
2024/04/18 02:56:24;;;;;;;2.83;1.10;;;;;18.30;100331.00;;;;2210249;26;20294;-58
2024/04/18 02:57:24;;;;;;;2.53;1.00;;;;;18.30;100336.00;;;;2222163;26;20262;-58
2024/04/18 02:58:25;;;;;;;3.13;0.97;;;;;18.40;100339.00;;;;2218853;26;20355;-58
2024/04/18 02:59:25;;;;;;;1.90;0.90;;;;;18.40;100338.00;;;;2219876;26;20305;-57
2024/04/18 03:00:25;;;;;;;3.10;1.33;;;;;18.30;100347.00;;;;2221670;26;20249;-58
2024/04/18 03:01:26;;;;;;;3.00;1.00;;;;;18.30;100341.00;;;;2209620;26;20308;-58
2024/04/18 03:02:26;;;;;;;1.70;0.87;;;;;18.30;100366.00;;;;2224865;26;20246;-58
2024/04/18 03:03:26;;;;;;;1.80;0.80;;;;;18.30;100361.00;;;;2227117;26;20262;-58
2024/04/18 03:04:27;;;;;;;1.83;0.80;;;;;18.30;100386.00;;;;2215679;26;21258;-58
2024/04/18 03:05:27;;;;;;;2.20;0.90;;;;;18.30;100350.00;;;;2220159;26;20722;-58
2024/04/18 03:06:27;;;;;;;1.93;0.80;;;;;18.40;100342.00;;;;2217810;26;20255;-58
2024/04/18 03:07:28;;;;;;;2.33;1.00;;;;;18.40;100345.00;;;;2218417;26;20363;-58
2024/04/18 03:08:28;;;;;;;2.00;0.80;;;;;18.30;100347.00;;;;2225194;26;20245;-58
2024/04/18 03:09:29;;;;;;;2.23;1.20;;;;;18.30;100347.00;;;;2226524;26;20276;-58
2024/04/18 03:10:29;;;;;;;2.47;0.90;;;;;18.40;100355.00;;;;2226720;26;20247;-58
2024/04/18 03:11:30;;;;;;;1.90;0.80;;;;;18.30;100343.00;;;;2211634;26;20258;-58
2024/04/18 03:12:31;;;;;;;2.25;0.93;;;;;18.30;100350.00;;;;2221781;26;20255;-58
2024/04/18 03:13:32;;;;;;;2.70;0.90;;;;;18.30;100383.00;;;;2219751;26;20246;-58
2024/04/18 03:14:32;;;;;;;2.10;1.00;;;;;18.30;100342.00;;;;2219197;26;20255;-58
2024/04/18 03:15:32;;;;;;;2.40;0.90;;;;;18.30;100340.00;;;;2218278;26;20684;-57
2024/04/18 03:16:33;;;;;;;2.20;1.07;;;;;18.30;100350.00;;;;2217198;26;20699;-58
2024/04/18 03:17:33;;;;;;;2.20;1.00;;;;;18.30;100345.00;;;;2219777;26;20258;-57
2024/04/18 03:18:33;;;;;;;2.20;0.80;;;;;18.30;100353.00;;;;2219212;26;21012;-58
2024/04/18 03:19:34;;;;;;;2.07;1.03;;;;;18.30;100347.00;;;;2218281;26;20880;-58
2024/04/18 03:20:34;;;;;;;1.87;0.80;;;;;18.30;100358.00;;;;2218502;26;20609;-58
2024/04/18 03:21:34;;;;;;;1.90;1.00;;;;;18.30;100358.00;;;;2217825;26;20819;-58
2024/04/18 03:22:35;;;;;;;2.00;1.03;;;;;18.30;100365.00;;;;2218555;26;20263;-57
2024/04/18 03:23:35;;;;;;;1.80;0.70;;;;;18.30;100351.00;;;;2222449;26;20292;-58
2024/04/18 03:24:35;;;;;;;2.10;1.00;;;;;18.30;100361.00;;;;2225592;26;20667;-58
2024/04/18 03:25:36;;;;;;;3.23;0.93;;;;;18.30;100354.00;;;;2227322;26;20709;-57
2024/04/18 03:26:36;;;;;;;2.00;0.87;;;;;18.30;100240.00;;;;2212274;26;20591;-58
2024/04/18 03:27:37;;;;;;;2.90;1.35;;;;;18.30;100356.00;;;;2232575;26;20246;-58
2024/04/18 03:28:37;;;;;;;2.30;1.10;;;;;18.30;100361.00;;;;2221402;26;20281;-58
2024/04/18 03:29:38;;;;;;;2.10;0.90;;;;;18.30;100366.00;;;;2217257;26;20290;-62
2024/04/18 03:30:38;;;;;;;2.60;1.30;;;;;17.90;100364.00;;;;2213404;26;20286;-60
2024/04/18 03:31:45;;;;;;;1.80;0.90;;;;;18.30;100366.00;;;;2209835;26;20255;-58
2024/04/18 03:32:45;;;;;;;2.00;0.73;;;;;18.30;100363.00;;;;2218079;26;20607;-58
2024/04/18 03:33:45;;;;;;;1.87;0.87;;;;;18.30;100364.00;;;;2218340;26;20258;-58
2024/04/18 03:34:45;;;;;;;2.27;1.10;;;;;18.30;100364.00;;;;2221823;26;20367;-58
2024/04/18 03:35:46;;;;;;;1.80;0.80;;;;;18.30;100365.00;;;;2226667;26;20265;-57
2024/04/18 03:36:52;;;;;;;2.03;0.93;;;;;18.30;100364.00;;;;2209401;26;20292;-58
2024/04/18 03:37:52;;;;;;;2.05;0.85;;;;;18.30;100367.00;;;;2225892;26;20269;-58
2024/04/18 03:38:53;;;;;;;2.10;1.00;;;;;18.30;100407.00;;;;2232144;26;20610;-58
2024/04/18 03:39:53;;;;;;;3.40;1.10;;;;;18.30;100372.00;;;;2219379;26;20611;-58
2024/04/18 03:40:56;;;;;;;2.23;1.03;;;;;18.30;100363.00;;;;2214157;26;20314;-58
2024/04/18 03:41:56;;;;;;;2.05;0.90;;;;;18.30;100360.00;;;;2208675;26;20866;-57
2024/04/18 03:42:57;;;;;;;2.50;1.10;;;;;18.30;100374.00;;;;2230588;26;20257;-58
2024/04/18 03:43:58;;;;;;;2.70;1.30;;;;;17.50;100360.00;;;;2230731;26;20296;-57
2024/04/18 03:44:59;;;;;;;2.13;0.95;;;;;18.30;100360.00;;;;2227423;26;20262;-58
2024/04/18 03:46:00;;;;;;;2.10;0.90;;;;;18.30;100365.00;;;;2230913;26;20307;-58
2024/04/18 03:47:00;;;;;;;2.40;1.17;;;;;18.30;100359.00;;;;2209365;26;20259;-58
2024/04/18 03:48:01;;;;;;;2.13;1.00;;;;;18.30;100379.00;;;;2224244;26;20336;-58
2024/04/18 03:49:01;;;;;;;3.17;1.43;;;;;18.30;100370.00;;;;2218410;26;20250;-58
2024/04/18 03:50:01;;;;;;;2.83;1.10;;;;;18.30;100361.00;;;;2227769;26;20245;-58
2024/04/18 03:51:02;;;;;;;1.80;0.90;;;;;18.30;100365.00;;;;2221305;26;20285;-57
2024/04/18 03:52:03;;;;;;;2.00;1.07;;;;;18.30;100365.00;;;;2217366;26;20298;-58
2024/04/18 03:53:03;;;;;;;2.47;1.00;;;;;18.30;100367.00;;;;2228849;26;20324;-58
2024/04/18 03:54:03;;;;;;;2.53;1.00;;;;;18.30;100365.00;;;;2218244;26;20250;-58
2024/04/18 03:55:04;;;;;;;3.23;0.93;;;;;18.30;100371.00;;;;2220048;26;20945;-58
2024/04/18 03:56:04;;;;;;;3.20;0.97;;;;;18.30;100374.00;;;;2218225;26;20263;-58
2024/04/18 03:57:04;;;;;;;2.30;1.10;;;;;18.30;100373.00;;;;2218863;26;20319;-58
2024/04/18 03:58:05;;;;;;;2.30;1.17;;;;;18.30;100377.00;;;;2230063;26;20325;-58
2024/04/18 03:59:05;;;;;;;2.13;0.80;;;;;18.30;100382.00;;;;2230071;26;21129;-58
2024/04/18 04:00:06;;;;;;;1.70;0.80;;;;;18.30;100377.00;;;;2218427;26;20254;-58
2024/04/18 04:01:07;;;;;;;2.30;0.80;;;;;18.30;100380.00;;;;2218240;26;20289;-58
2024/04/18 04:02:07;;;;;;;2.60;0.93;;;;;17.70;100376.00;;;;2218756;26;20304;-58
2024/04/18 04:03:07;;;;;;;2.03;0.93;;;;;18.30;100376.00;;;;2217953;26;20290;-58
2024/04/18 04:04:08;;;;;;;2.43;0.83;;;;;18.30;100384.00;;;;2216323;26;20247;-58
2024/04/18 04:05:08;;;;;;;2.10;1.00;;;;;18.30;100385.00;;;;2217805;26;20247;-58
2024/04/18 04:06:08;;;;;;;2.73;1.10;;;;;18.30;100386.00;;;;2217711;26;20254;-58
2024/04/18 04:07:09;;;;;;;2.10;0.90;;;;;18.30;100391.00;;;;2208057;26;20313;-58
2024/04/18 04:08:09;;;;;;;2.33;1.00;;;;;18.30;100392.00;;;;2217811;26;20255;-58
2024/04/18 04:09:09;;;;;;;2.00;1.10;;;;;18.30;100389.00;;;;2225448;26;20248;-58
2024/04/18 04:10:10;;;;;;;2.00;0.97;;;;;18.30;100389.00;;;;2230608;26;20254;-58
2024/04/18 04:11:10;;;;;;;1.97;0.70;;;;;18.30;100397.00;;;;2228822;26;20287;-58
2024/04/18 04:12:11;;;;;;;2.27;0.90;;;;;18.30;100413.00;;;;2207333;26;20352;-58
2024/04/18 04:13:11;;;;;;;3.17;1.20;;;;;18.30;100396.00;;;;2216212;26;20254;-59
2024/04/18 04:14:11;;;;;;;2.23;1.23;;;;;18.30;100403.00;;;;2217499;26;20297;-59
2024/04/18 04:15:12;;;;;;;2.30;0.90;;;;;18.30;100396.00;;;;2231493;26;20257;-58
2024/04/18 04:16:12;;;;;;;2.33;0.90;;;;;18.30;100398.00;;;;2220290;26;20289;-59
2024/04/18 04:17:13;;;;;;;2.30;0.97;;;;;18.30;100403.00;;;;2218942;26;20293;-57
2024/04/18 04:18:13;;;;;;;1.70;0.90;;;;;18.30;100405.00;;;;2218569;26;20261;-58
2024/04/18 04:19:13;;;;;;;2.50;0.87;;;;;18.30;100406.00;;;;2225787;26;20292;-57
2024/04/18 04:20:14;;;;;;;2.13;0.90;;;;;18.30;100406.00;;;;2228120;26;20258;-57
2024/04/18 04:21:14;;;;;;;3.60;0.90;;;;;18.30;100406.00;;;;2206402;26;20263;-56
2024/04/18 04:22:14;;;;;;;2.40;1.00;;;;;18.30;100408.00;;;;2225553;26;20342;-57
2024/04/18 04:23:15;;;;;;;1.90;0.67;;;;;18.30;100410.00;;;;2215574;26;20282;-57
2024/04/18 04:24:15;;;;;;;2.17;0.90;;;;;18.30;100416.00;;;;2215533;26;20250;-56
2024/04/18 04:25:15;;;;;;;1.80;0.67;;;;;18.30;100405.00;;;;2220489;26;20253;-57
2024/04/18 04:26:16;;;;;;;1.80;0.80;;;;;18.30;100415.00;;;;2209155;26;20294;-56
2024/04/18 04:27:16;;;;;;;2.13;0.70;;;;;18.30;100415.00;;;;2219963;26;20625;-57
2024/04/18 04:28:16;;;;;;;2.00;1.03;;;;;18.30;100415.00;;;;2227557;26;20249;-57
2024/04/18 04:29:17;;;;;;;1.60;0.60;;;;;18.30;100414.00;;;;2218091;26;20375;-57
2024/04/18 04:30:17;;;;;;;2.30;0.90;;;;;18.30;100415.00;;;;2224821;26;20305;-57
2024/04/18 04:31:18;;;;;;;6.17;0.70;;;;;18.30;100427.00;;;;2221930;26;20296;-58
2024/04/18 04:32:20;;;;;;;4.03;0.90;;;;;18.30;100411.00;;;;2243506;26;20388;-58
2024/04/18 04:33:21;;;;;;;1.95;0.88;;;;;18.30;100422.00;;;;2243264;26;20265;-57
2024/04/18 04:34:21;;;;;;;1.77;0.73;;;;;18.30;100415.00;;;;2219984;26;20265;-57
2024/04/18 04:35:21;;;;;;;2.00;0.90;;;;;18.30;100420.00;;;;2219503;26;20293;-57
2024/04/18 04:36:22;;;;;;;2.73;0.87;;;;;18.20;100417.00;;;;2204528;26;20714;-58
2024/04/18 04:37:22;;;;;;;2.00;1.00;;;;;18.30;100425.00;;;;2230201;26;20792;-57
2024/04/18 04:38:25;;;;;;;3.30;1.27;;;;;18.30;100425.00;;;;2228961;26;20257;-57
2024/04/18 04:39:26;;;;;;;2.55;0.70;;;;;18.30;100313.00;;;;2227307;26;20957;-58
2024/04/18 04:40:26;;;;;;;1.80;0.80;;;;;18.30;100477.00;;;;2217309;26;20259;-58
2024/04/18 04:41:26;;;;;;;2.97;1.00;;;;;18.30;100443.00;;;;2210430;26;20625;-58
2024/04/18 04:42:27;;;;;;;3.30;0.80;;;;;18.30;100316.00;;;;2220027;26;20730;-57
2024/04/18 04:43:27;;;;;;;2.13;0.77;;;;;18.30;100436.00;;;;2216785;26;20678;-57
2024/04/18 04:44:27;;;;;;;2.37;0.83;;;;;18.30;100448.00;;;;2217912;26;20936;-57
2024/04/18 04:45:28;;;;;;;1.80;0.80;;;;;18.30;100446.00;;;;2217921;26;20615;-57
2024/04/18 04:46:28;;;;;;;2.37;0.93;;;;;18.30;100448.00;;;;2200399;26;20353;-58
2024/04/18 04:47:28;;;;;;;1.77;0.80;;;;;18.30;100436.00;;;;2223215;26;20292;-58
2024/04/18 04:48:28;;;;;;;2.70;0.70;;;;;18.30;100449.00;;;;2217917;26;20630;-58
2024/04/18 04:49:29;;;;;;;1.70;0.70;;;;;18.30;100450.00;;;;2215999;26;20305;-57
2024/04/18 04:50:29;;;;;;;2.00;1.00;;;;;18.30;100454.00;;;;2217934;26;20254;-58
2024/04/18 04:51:29;;;;;;;1.97;0.80;;;;;18.30;100455.00;;;;2215806;26;20361;-57
2024/04/18 04:52:30;;;;;;;2.20;1.00;;;;;18.30;100451.00;;;;2227715;26;20338;-58
2024/04/18 04:53:30;;;;;;;1.90;0.80;;;;;18.30;100449.00;;;;2217011;26;20253;-57
2024/04/18 04:54:30;;;;;;;2.03;1.00;;;;;18.30;100460.00;;;;2222975;26;20311;-57
2024/04/18 04:55:31;;;;;;;2.37;0.93;;;;;18.20;100464.00;;;;2226240;26;20345;-57
2024/04/18 04:56:31;;;;;;;1.87;0.83;;;;;18.20;100448.00;;;;2205698;26;20260;-58
2024/04/18 04:57:31;;;;;;;2.30;0.90;;;;;18.30;100453.00;;;;2244713;26;20257;-58
2024/04/18 04:58:32;;;;;;;2.40;0.97;;;;;18.30;100466.00;;;;2235978;26;20269;-57
2024/04/18 04:59:32;;;;;;;2.00;0.70;;;;;18.10;100458.00;;;;2217608;26;20253;-58